createdAt,value
2018-09-12T00:00:29.276Z,17.73
2018-09-12T00:03:03.807Z,17.76
2018-09-12T00:05:38.489Z,17.77
2018-09-12T00:08:13.102Z,17.76
2018-09-12T00:10:47.565Z,17.77
2018-09-12T00:13:22.188Z,17.71
2018-09-12T00:15:56.801Z,17.68
2018-09-12T00:18:31.499Z,17.62
2018-09-12T00:21:06.591Z,17.59
2018-09-12T00:23:41.203Z,17.54
2018-09-12T00:26:15.785Z,17.53
2018-09-12T00:28:50.525Z,17.47
2018-09-12T00:31:25.200Z,17.50
2018-09-12T00:33:59.765Z,17.60
2018-09-12T00:36:34.375Z,17.64
2018-09-12T00:39:10.602Z,17.57
2018-09-12T00:41:45.092Z,17.52
2018-09-12T00:44:19.712Z,17.49
2018-09-12T00:46:54.313Z,17.45
2018-09-12T00:49:28.765Z,17.41
2018-09-12T00:52:03.307Z,17.34
2018-09-12T00:54:37.996Z,17.27
2018-09-12T00:57:12.557Z,17.20
2018-09-12T00:59:47.150Z,17.17
2018-09-12T01:02:21.680Z,17.17
2018-09-12T01:04:56.369Z,17.24
2018-09-12T01:07:31.014Z,17.24
2018-09-12T01:10:05.981Z,17.22
2018-09-12T01:12:40.594Z,17.23
2018-09-12T01:15:16.097Z,17.27
2018-09-12T01:17:50.723Z,17.26
2018-09-12T01:20:25.281Z,17.21
2018-09-12T01:22:59.914Z,17.24
2018-09-12T01:25:34.641Z,17.23
2018-09-12T01:28:09.133Z,17.25
2018-09-12T01:30:43.808Z,17.20
2018-09-12T01:33:18.394Z,17.22
2018-09-12T01:35:52.997Z,17.19
2018-09-12T01:38:27.685Z,17.20
2018-09-12T01:41:02.784Z,17.17
2018-09-12T01:43:37.189Z,17.15
2018-09-12T01:46:11.829Z,17.13
2018-09-12T01:48:46.512Z,17.13
2018-09-12T01:51:21.210Z,17.10
2018-09-12T01:53:55.711Z,17.04
2018-09-12T01:56:30.462Z,16.99
2018-09-12T01:59:05.025Z,17.00
2018-09-12T02:01:39.768Z,17.01
2018-09-12T02:04:14.680Z,17.01
2018-09-12T02:06:49.353Z,17.04
2018-09-12T02:09:24.028Z,17.05
2018-09-12T02:11:58.604Z,17.03
2018-09-12T02:14:33.205Z,16.99
2018-09-12T02:17:07.861Z,17.01
2018-09-12T02:19:42.504Z,17.01
2018-09-12T02:22:17.148Z,17.01
2018-09-12T02:24:51.789Z,17.06
2018-09-12T02:27:26.409Z,17.04
2018-09-12T02:30:00.959Z,17.00
2018-09-12T02:32:35.529Z,16.94
2018-09-12T02:35:10.181Z,16.90
2018-09-12T02:37:44.736Z,16.89
2018-09-12T02:40:19.432Z,16.90
2018-09-12T02:42:54.051Z,16.84
2018-09-12T02:45:28.738Z,16.79
2018-09-12T02:48:03.324Z,16.76
2018-09-12T02:50:37.940Z,16.75
2018-09-12T02:53:12.393Z,16.72
2018-09-12T02:55:47.092Z,16.69
2018-09-12T02:58:21.781Z,16.67
2018-09-12T03:00:56.465Z,16.69
2018-09-12T03:03:30.969Z,16.74
2018-09-12T03:06:05.604Z,16.71
2018-09-12T03:08:40.200Z,16.66
2018-09-12T03:11:14.836Z,16.64
2018-09-12T03:13:49.339Z,16.64
2018-09-12T03:16:24.112Z,16.57
2018-09-12T03:18:58.723Z,16.57
2018-09-12T03:21:33.192Z,16.55
2018-09-12T03:24:07.960Z,16.51
2018-09-12T03:26:42.447Z,16.48
2018-09-12T03:29:16.977Z,16.46
2018-09-12T03:31:51.732Z,16.44
2018-09-12T03:34:26.298Z,16.49
2018-09-12T03:37:01.777Z,16.51
2018-09-12T03:39:36.368Z,16.45
2018-09-12T03:42:10.906Z,16.53
2018-09-12T03:44:45.320Z,16.46
2018-09-12T03:47:19.822Z,16.44
2018-09-12T03:49:54.184Z,16.41
2018-09-12T03:52:28.676Z,16.37
2018-09-12T03:55:03.106Z,16.34
2018-09-12T03:57:37.633Z,16.35
2018-09-12T04:00:12.063Z,16.32
2018-09-12T04:02:46.780Z,16.33
2018-09-12T04:05:21.082Z,16.32
2018-09-12T04:07:55.569Z,16.30
2018-09-12T04:10:30.105Z,16.26
2018-09-12T04:13:04.772Z,16.26
2018-09-12T04:15:39.636Z,16.24
2018-09-12T04:18:14.210Z,16.27
2018-09-12T04:20:48.835Z,16.23
2018-09-12T04:23:23.381Z,16.18
2018-09-12T04:25:58.000Z,16.12
2018-09-12T04:28:32.492Z,16.08
2018-09-12T04:31:07.133Z,16.09
2018-09-12T04:33:41.640Z,16.08
2018-09-12T04:36:16.244Z,16.10
2018-09-12T04:38:50.792Z,16.18
2018-09-12T04:41:25.494Z,16.26
2018-09-12T04:44:00.145Z,16.25
2018-09-12T04:46:35.318Z,16.21
2018-09-12T04:49:10.056Z,16.21
2018-09-12T04:51:44.620Z,16.20
2018-09-12T04:54:19.241Z,16.14
2018-09-12T04:56:53.924Z,16.13
2018-09-12T04:59:28.405Z,16.06
2018-09-12T05:02:02.800Z,16.04
2018-09-12T05:04:37.317Z,15.99
2018-09-12T05:07:11.895Z,16.05
2018-09-12T05:09:46.564Z,16.10
2018-09-12T05:12:21.109Z,16.10
2018-09-12T05:14:55.557Z,16.09
2018-09-12T05:17:30.045Z,16.07
2018-09-12T05:20:04.824Z,16.08
2018-09-12T05:22:39.736Z,16.17
2018-09-12T05:25:14.189Z,16.18
2018-09-12T05:27:48.834Z,16.17
2018-09-12T05:30:23.488Z,16.14
2018-09-12T05:32:58.112Z,16.18
2018-09-12T05:35:32.772Z,16.18
2018-09-12T05:38:07.424Z,16.21
2018-09-12T05:40:42.045Z,16.23
2018-09-12T05:43:16.442Z,16.31
2018-09-12T05:45:51.061Z,16.39
2018-09-12T05:48:25.640Z,16.47
2018-09-12T05:51:00.297Z,16.53
2018-09-12T05:53:34.840Z,16.58
2018-09-12T05:56:09.479Z,16.61
2018-09-12T05:58:43.878Z,16.75
2018-09-12T06:01:18.522Z,16.85
2018-09-12T06:03:53.132Z,16.95
2018-09-12T06:06:28.100Z,17.55
2018-09-12T06:09:02.683Z,19.00
2018-09-12T06:11:37.097Z,20.80
2018-09-12T06:14:11.507Z,21.94
2018-09-12T06:16:46.159Z,20.41
2018-09-12T06:19:20.758Z,19.60
2018-09-12T06:21:55.280Z,18.86
2018-09-12T06:24:29.868Z,18.98
2018-09-12T06:27:04.585Z,22.12
2018-09-12T06:29:39.323Z,25.07
2018-09-12T06:32:13.661Z,25.10
2018-09-12T06:34:48.199Z,27.05
2018-09-12T06:37:22.689Z,24.68
2018-09-12T06:39:57.132Z,23.68
2018-09-12T06:42:31.569Z,22.23
2018-09-12T06:45:06.157Z,21.27
2018-09-12T06:47:40.826Z,20.00
2018-09-12T06:50:15.413Z,20.09
2018-09-12T06:52:50.017Z,21.00
2018-09-12T06:55:24.549Z,24.06
2018-09-12T06:57:59.075Z,26.40
2018-09-12T07:00:33.625Z,30.89
2018-09-12T07:03:08.616Z,29.46
2018-09-12T07:05:43.300Z,31.72
2018-09-12T07:08:17.851Z,30.88
2018-09-12T07:10:52.394Z,29.11
2018-09-12T07:13:26.861Z,29.01
2018-09-12T07:16:01.344Z,30.16
2018-09-12T07:18:35.883Z,29.35
2018-09-12T07:21:10.356Z,29.79
2018-09-12T07:23:45.057Z,29.89
2018-09-12T07:26:19.588Z,29.91
2018-09-12T07:28:53.959Z,28.61
2018-09-12T07:31:28.466Z,27.05
2018-09-12T07:34:02.960Z,24.94
2018-09-12T07:36:37.624Z,23.83
2018-09-12T07:39:13.993Z,23.18
2018-09-12T07:41:48.470Z,22.43
2018-09-12T07:44:23.050Z,22.71
2018-09-12T07:46:57.728Z,23.76
2018-09-12T07:49:32.232Z,24.51
2018-09-12T07:52:06.608Z,25.31
2018-09-12T07:54:41.139Z,23.88
2018-09-12T07:57:15.698Z,23.72
2018-09-12T07:59:50.192Z,22.70
2018-09-12T08:02:24.785Z,23.03
2018-09-12T08:04:59.327Z,22.71
2018-09-12T08:07:33.895Z,22.44
2018-09-12T08:10:08.358Z,21.58
2018-09-12T08:12:42.952Z,21.08
2018-09-12T08:15:17.348Z,21.12
2018-09-12T08:17:52.170Z,21.54
2018-09-12T08:20:27.053Z,21.42
2018-09-12T08:23:05.799Z,21.28
2018-09-12T08:25:40.365Z,23.14
2018-09-12T08:28:14.909Z,23.16
2018-09-12T08:30:49.422Z,23.10
2018-09-12T08:33:24.357Z,22.56
2018-09-12T08:35:58.954Z,21.70
2018-09-12T08:38:33.392Z,21.72
2018-09-12T08:41:07.831Z,21.44
2018-09-12T08:43:42.428Z,21.27
2018-09-12T08:46:16.876Z,21.51
2018-09-12T08:48:51.268Z,21.43
2018-09-12T08:51:25.754Z,21.78
2018-09-12T08:54:00.284Z,21.67
2018-09-12T08:56:34.797Z,22.09
2018-09-12T08:59:09.385Z,22.16
2018-09-12T09:01:43.869Z,22.67
2018-09-12T09:04:18.564Z,23.63
2018-09-12T09:06:53.074Z,23.64
2018-09-12T09:09:27.565Z,23.91
2018-09-12T09:12:02.280Z,24.60
2018-09-12T09:14:36.740Z,25.41
2018-09-12T09:17:11.398Z,24.57
2018-09-12T09:19:46.120Z,24.21
2018-09-12T09:22:20.613Z,23.89
2018-09-12T09:24:55.481Z,23.69
2018-09-12T09:27:33.003Z,23.41
2018-09-12T09:30:08.057Z,23.61
2018-09-12T09:32:42.619Z,23.95
2018-09-12T09:35:17.261Z,23.81
2018-09-12T09:37:51.849Z,23.29
2018-09-12T09:40:26.416Z,22.98
2018-09-12T09:43:01.016Z,23.11
2018-09-12T09:45:35.557Z,23.58
2018-09-12T09:48:10.131Z,23.19
2018-09-12T09:50:44.461Z,23.08
2018-09-12T09:53:19.133Z,23.48
2018-09-12T09:55:53.561Z,22.73
2018-09-12T09:58:28.161Z,22.80
2018-09-12T10:01:08.026Z,23.10
2018-09-12T10:04:45.464Z,23.04
2018-09-12T10:07:25.510Z,23.45
2018-09-12T10:10:06.260Z,23.44
2018-09-12T10:12:40.751Z,23.31
2018-09-12T10:15:15.361Z,23.75
2018-09-12T10:17:49.908Z,23.54
2018-09-12T10:20:24.349Z,24.06
2018-09-12T10:22:58.976Z,24.03
2018-09-12T10:25:33.546Z,24.01
2018-09-12T10:28:08.069Z,23.69
2018-09-12T10:30:42.746Z,24.13
2018-09-12T10:33:17.541Z,24.04
2018-09-12T10:35:52.209Z,24.08
2018-09-12T10:38:26.572Z,23.53
2018-09-12T10:41:01.011Z,23.40
2018-09-12T10:43:35.395Z,23.33
2018-09-12T10:46:09.747Z,23.30
2018-09-12T10:48:44.091Z,23.76
2018-09-12T10:51:18.461Z,24.25
2018-09-12T10:53:56.604Z,25.01
2018-09-12T10:56:30.975Z,25.50
2018-09-12T10:59:05.427Z,25.32
2018-09-12T11:01:39.759Z,25.75
2018-09-12T11:04:14.359Z,26.53
2018-09-12T11:06:48.795Z,27.79
2018-09-12T11:09:23.167Z,28.36
2018-09-12T11:11:57.434Z,26.63
2018-09-12T11:14:31.895Z,26.86
2018-09-12T11:17:06.327Z,26.44
2018-09-12T11:19:40.775Z,26.77
2018-09-12T11:22:15.287Z,27.54
2018-09-12T11:24:49.519Z,27.25
2018-09-12T11:27:24.072Z,27.79
2018-09-12T11:29:58.298Z,27.16
2018-09-12T11:32:32.823Z,26.86
2018-09-12T11:35:07.417Z,25.57
2018-09-12T11:37:41.855Z,25.83
2018-09-12T11:40:16.637Z,25.88
2018-09-12T11:42:51.064Z,25.98
2018-09-12T11:45:25.349Z,25.86
2018-09-12T11:47:59.703Z,25.62
2018-09-12T11:50:34.104Z,25.63
2018-09-12T11:53:08.791Z,25.65
2018-09-12T11:55:43.107Z,25.43
2018-09-12T11:58:17.539Z,25.55
2018-09-12T12:00:52.105Z,25.29
2018-09-12T12:03:27.175Z,24.96
2018-09-12T12:06:01.560Z,24.78
2018-09-12T12:08:35.923Z,24.99
2018-09-12T12:11:10.319Z,24.80
2018-09-12T12:13:44.535Z,24.77
2018-09-12T12:16:18.951Z,24.52
2018-09-12T12:18:53.193Z,24.95
2018-09-12T12:21:28.051Z,24.80
2018-09-12T12:24:02.424Z,24.85
2018-09-12T12:26:36.779Z,24.58
2018-09-12T12:29:11.131Z,23.97
2018-09-12T12:31:45.734Z,24.05
2018-09-12T12:34:20.113Z,24.35
2018-09-12T12:36:54.551Z,24.66
2018-09-12T12:39:28.815Z,24.75
2018-09-12T12:42:03.156Z,24.82
2018-09-12T12:44:37.819Z,24.78
2018-09-12T12:47:12.371Z,25.06
2018-09-12T12:49:47.132Z,25.08
2018-09-12T12:52:21.595Z,25.37
2018-09-12T12:54:55.870Z,25.26
2018-09-12T12:57:30.297Z,24.92
2018-09-12T13:00:04.620Z,25.01
2018-09-12T13:02:39.003Z,24.81
2018-09-12T13:05:13.421Z,24.52
2018-09-12T13:07:47.652Z,24.49
2018-09-12T13:10:21.958Z,24.40
2018-09-12T13:12:56.348Z,24.61
2018-09-12T13:15:30.888Z,24.76
2018-09-12T13:18:05.508Z,24.88
2018-09-12T13:20:39.956Z,24.61
2018-09-12T13:23:14.563Z,24.07
2018-09-12T13:25:49.310Z,24.06
2018-09-12T13:28:23.837Z,23.91
2018-09-12T13:30:58.330Z,23.54
2018-09-12T13:33:32.878Z,23.54
2018-09-12T13:36:07.571Z,23.13
2018-09-12T13:38:42.013Z,23.02
2018-09-12T13:41:16.572Z,23.00
2018-09-12T13:43:51.072Z,22.78
2018-09-12T13:46:25.902Z,22.84
2018-09-12T13:49:00.429Z,22.52
2018-09-12T13:51:35.444Z,22.49
2018-09-12T13:54:09.960Z,22.35
2018-09-12T13:56:44.623Z,22.68
2018-09-12T13:59:18.900Z,22.34
2018-09-12T14:01:53.513Z,22.10
2018-09-12T14:04:28.112Z,21.90
2018-09-12T14:07:02.689Z,21.85
2018-09-12T14:09:37.280Z,21.72
2018-09-12T14:12:11.913Z,21.42
2018-09-12T14:14:47.738Z,21.10
2018-09-12T14:17:25.463Z,20.86
2018-09-12T14:19:59.988Z,20.82
2018-09-12T14:22:35.071Z,20.60
2018-09-12T14:28:09.204Z,20.40
2018-09-12T14:30:43.800Z,20.30
2018-09-12T14:33:18.492Z,20.25
2018-09-12T14:35:52.986Z,20.15
2018-09-12T14:38:27.480Z,20.18
2018-09-12T14:41:02.153Z,20.10
2018-09-12T14:43:36.671Z,19.99
2018-09-12T14:46:11.257Z,19.87
2018-09-12T14:48:45.785Z,19.83
2018-09-12T14:51:20.394Z,19.88
2018-09-12T14:53:54.937Z,19.95
2018-09-12T14:56:30.713Z,20.15
2018-09-12T14:59:05.736Z,20.30
2018-09-12T15:01:40.257Z,20.21
2018-09-12T15:04:14.817Z,20.22
2018-09-12T15:06:49.304Z,20.23
2018-09-12T15:09:23.987Z,20.19
2018-09-12T15:11:58.680Z,20.08
2018-09-12T15:14:33.324Z,19.88
2018-09-12T15:17:08.029Z,19.87
2018-09-12T15:19:42.565Z,19.80
2018-09-12T15:22:17.452Z,19.75
2018-09-12T15:24:51.824Z,19.83
2018-09-12T15:27:26.509Z,19.95
2018-09-12T15:30:01.084Z,19.67
2018-09-12T15:32:35.585Z,19.45
2018-09-12T15:35:10.161Z,19.35
2018-09-12T15:37:44.624Z,19.13
2018-09-12T15:40:19.245Z,19.03
2018-09-12T15:42:53.829Z,18.90
2018-09-12T15:45:28.596Z,18.71
2018-09-12T15:48:03.255Z,18.71
2018-09-12T15:50:37.805Z,18.29
2018-09-12T15:53:12.400Z,18.03
2018-09-12T15:55:47.200Z,17.94
2018-09-12T15:58:21.642Z,17.65
2018-09-12T16:00:56.201Z,17.77
2018-09-12T16:03:31.654Z,17.83
2018-09-12T16:06:06.518Z,17.43
2018-09-12T16:08:41.146Z,17.27
2018-09-12T16:11:15.826Z,17.07
2018-09-12T16:13:50.425Z,17.21
2018-09-12T16:16:25.142Z,17.23
2018-09-12T16:19:00.257Z,17.13
2018-09-12T16:21:34.948Z,16.99
2018-09-12T16:24:09.620Z,16.92
2018-09-12T16:26:44.381Z,16.91
2018-09-12T16:29:19.393Z,16.81
2018-09-12T16:31:54.044Z,16.89
2018-09-12T16:34:28.788Z,16.81
2018-09-12T16:37:03.760Z,16.58
2018-09-12T16:39:38.304Z,16.67
2018-09-12T16:42:12.928Z,16.63
2018-09-12T16:44:47.362Z,16.51
2018-09-12T16:47:21.879Z,16.36
2018-09-12T16:49:56.496Z,16.25
2018-09-12T16:52:31.000Z,16.30
2018-09-12T16:55:05.584Z,16.29
2018-09-12T16:57:40.089Z,16.19
2018-09-12T17:00:14.682Z,16.14
2018-09-12T17:02:49.494Z,16.13
2018-09-12T17:05:24.093Z,16.12
2018-09-12T17:07:58.567Z,15.99
2018-09-12T17:10:33.626Z,15.96
2018-09-12T17:13:08.329Z,15.92
2018-09-12T17:15:43.020Z,15.96
2018-09-12T17:18:17.457Z,15.86
2018-09-12T17:20:52.196Z,15.73
2018-09-12T17:23:26.817Z,15.76
2018-09-12T17:26:01.409Z,15.77
2018-09-12T17:28:35.900Z,15.73
2018-09-12T17:31:10.413Z,15.63
2018-09-12T17:33:45.093Z,15.60
2018-09-12T17:36:19.812Z,15.39
2018-09-12T17:38:54.184Z,15.41
2018-09-12T17:41:28.749Z,15.37
2018-09-12T17:44:03.300Z,15.32
2018-09-12T17:46:37.921Z,15.30
2018-09-12T17:49:12.775Z,15.20
2018-09-12T17:51:47.388Z,15.18
2018-09-12T17:54:22.076Z,15.14
2018-09-12T17:56:56.748Z,15.08
2018-09-12T17:59:31.256Z,15.00
2018-09-12T18:02:05.755Z,15.01
2018-09-12T18:04:40.313Z,14.98
2018-09-12T18:07:15.069Z,14.93
2018-09-12T18:09:49.536Z,14.93
2018-09-12T18:12:24.236Z,14.90
2018-09-12T18:14:58.877Z,14.86
2018-09-12T18:17:33.488Z,14.83
2018-09-12T18:20:07.959Z,14.74
2018-09-12T18:22:42.632Z,14.79
2018-09-12T18:25:17.212Z,14.75
2018-09-12T18:27:51.772Z,14.71
2018-09-12T18:30:26.417Z,14.61
2018-09-12T18:33:01.084Z,14.66
2018-09-12T18:35:35.604Z,14.65
2018-09-12T18:38:10.097Z,14.61
2018-09-12T18:40:44.674Z,14.63
2018-09-12T18:43:19.237Z,14.62
2018-09-12T18:45:53.869Z,14.62
2018-09-12T18:48:28.551Z,14.59
2018-09-12T18:51:08.116Z,14.60
2018-09-12T18:53:42.472Z,14.59
2018-09-12T18:56:16.913Z,14.60
2018-09-12T18:58:51.414Z,14.54
2018-09-12T19:01:25.892Z,14.53
2018-09-12T19:04:00.447Z,14.50
2018-09-12T19:06:35.146Z,14.45
2018-09-12T19:09:11.033Z,14.41
2018-09-12T19:11:45.613Z,14.41
2018-09-12T19:14:20.496Z,14.39
2018-09-12T19:16:55.185Z,14.42
2018-09-12T19:19:29.838Z,14.44
2018-09-12T19:22:04.333Z,14.42
2018-09-12T19:24:38.901Z,14.41
2018-09-12T19:27:13.442Z,14.40
2018-09-12T19:29:47.952Z,14.37
2018-09-12T19:32:22.733Z,14.38
2018-09-12T19:34:57.406Z,14.41
2018-09-12T19:37:32.165Z,14.44
2018-09-12T19:40:06.801Z,14.50
2018-09-12T19:42:41.265Z,14.53
2018-09-12T19:45:16.373Z,14.66
2018-09-12T19:47:50.879Z,14.64
2018-09-12T19:50:25.833Z,14.69
2018-09-12T19:53:00.317Z,14.65
2018-09-12T19:55:35.129Z,14.62
2018-09-12T19:58:10.069Z,14.65
2018-09-12T20:00:44.622Z,14.63
2018-09-12T20:03:19.680Z,14.63
2018-09-12T20:05:55.531Z,14.62
2018-09-12T20:08:41.449Z,14.55
2018-09-12T20:11:18.334Z,14.57
2018-09-12T20:13:54.081Z,14.57
2018-09-12T20:16:28.928Z,14.55
2018-09-12T20:19:03.477Z,14.57
2018-09-12T20:21:39.497Z,14.56
2018-09-12T20:24:15.893Z,14.56
2018-09-12T20:26:51.581Z,14.53
2018-09-12T20:29:26.548Z,14.58
2018-09-12T20:32:01.050Z,14.61
2018-09-12T20:34:36.696Z,14.67
2018-09-12T20:37:12.261Z,14.65
2018-09-12T20:39:47.378Z,14.69
2018-09-12T20:42:22.116Z,14.65
2018-09-12T20:44:56.707Z,14.69
2018-09-12T20:47:31.589Z,14.68
2018-09-12T20:50:07.265Z,14.62
2018-09-12T20:52:41.806Z,14.66
2018-09-12T20:55:16.337Z,14.70
2018-09-12T20:57:51.541Z,14.80
2018-09-12T21:00:26.289Z,14.80
2018-09-12T21:03:01.057Z,14.75
2018-09-12T21:05:35.744Z,14.75
2018-09-12T21:08:10.316Z,14.76
2018-09-12T21:10:44.881Z,14.72
2018-09-12T21:13:19.822Z,14.71
2018-09-12T21:15:54.385Z,14.71
2018-09-12T21:18:28.966Z,14.67
2018-09-12T21:21:03.505Z,14.69
2018-09-12T21:23:38.065Z,14.77
2018-09-12T21:26:12.665Z,14.74
2018-09-12T21:28:47.187Z,14.78
2018-09-12T21:31:23.386Z,14.82
2018-09-12T21:33:58.181Z,14.79
2018-09-12T21:36:32.833Z,14.75
2018-09-12T21:39:09.880Z,14.73
2018-09-12T21:41:44.383Z,14.79
2018-09-12T21:44:19.149Z,14.78
2018-09-12T21:46:53.656Z,14.86
2018-09-12T21:49:28.304Z,14.94
2018-09-12T21:52:02.804Z,14.93
2018-09-12T21:54:37.276Z,14.87
2018-09-12T21:57:11.817Z,14.89
2018-09-12T21:59:46.346Z,14.88
2018-09-12T22:02:20.987Z,14.85
2018-09-12T22:04:56.069Z,14.88
2018-09-12T22:07:30.565Z,14.93
2018-09-12T22:10:05.444Z,14.95
2018-09-12T22:12:40.113Z,14.92
2018-09-12T22:15:14.654Z,14.93
2018-09-12T22:17:49.370Z,14.97
2018-09-12T22:20:24.098Z,14.93
2018-09-12T22:22:58.676Z,14.95
2018-09-12T22:25:33.208Z,14.97
2018-09-12T22:28:07.861Z,14.95
2018-09-12T22:30:42.452Z,14.91
2018-09-12T22:33:18.054Z,14.85
2018-09-12T22:35:52.734Z,14.86
2018-09-12T22:38:28.076Z,14.88
2018-09-12T22:41:02.662Z,14.85
2018-09-12T22:43:37.317Z,14.94
2018-09-12T22:46:12.213Z,14.93
2018-09-12T22:48:46.993Z,14.76
2018-09-12T22:51:22.042Z,14.90
2018-09-12T22:53:56.748Z,14.80
2018-09-12T22:56:31.410Z,14.78
2018-09-12T22:59:06.246Z,14.79
2018-09-12T23:01:40.740Z,14.84
2018-09-12T23:04:15.469Z,14.76
2018-09-12T23:06:50.116Z,14.70
2018-09-12T23:09:24.668Z,14.79
2018-09-12T23:11:59.265Z,14.75
2018-09-12T23:14:33.807Z,14.77
2018-09-12T23:17:09.041Z,14.68
2018-09-12T23:19:43.913Z,14.71
2018-09-12T23:22:18.455Z,14.67
2018-09-12T23:24:53.154Z,14.61
2018-09-12T23:27:27.868Z,14.66
2018-09-12T23:30:02.425Z,14.60
2018-09-12T23:32:37.162Z,14.62
2018-09-12T23:35:11.896Z,14.59
2018-09-12T23:37:46.337Z,14.63
2018-09-12T23:40:21.329Z,14.56
2018-09-12T23:42:56.356Z,14.53
2018-09-12T23:45:31.166Z,14.53
2018-09-12T23:48:05.717Z,14.54
2018-09-12T23:50:40.275Z,14.43
2018-09-12T23:53:15.409Z,14.34
2018-09-12T23:55:50.035Z,14.30
2018-09-12T23:58:24.692Z,14.32
